Time;durP1;ratioP1;P1;durP2;ratioP2;P2;SDS_P1;SDS_P2;PMS_P1;PMS_P2;Temp;Humidity;BMP_temperature;BMP_pressure;BME280_temperature;BME280_humidity;BME280_pressure;Samples;Min_cycle;Max_cycle;Signal;HPM_P1;HPM_P2
2023/08/30 00:00:40;;;;;;;4.53;3.60;;;15.80;99.90;;;;;;5050352;28;20483;-70
2023/08/30 00:03:08;;;;;;;5.73;2.90;;;15.80;99.90;;;;;;5050651;28;20546;-70
2023/08/30 00:05:35;;;;;;;4.77;2.93;;;15.80;99.90;;;;;;5052934;28;20496;-70
2023/08/30 00:08:04;;;;;;;3.23;2.93;;;15.80;99.90;;;;;;5052302;28;20785;-70
2023/08/30 00:10:37;;;;;;;4.73;2.90;;;15.70;99.90;;;;;;5018359;28;20456;-70
2023/08/30 00:13:06;;;;;;;2.97;2.43;;;15.80;99.90;;;;;;5034865;28;20475;-70
2023/08/30 00:15:43;;;;;;;3.97;3.17;;;15.70;99.90;;;;;;5051763;28;20470;-70
2023/08/30 00:18:10;;;;;;;3.40;3.10;;;15.80;99.90;;;;;;5051772;28;20460;-70
2023/08/30 00:20:38;;;;;;;4.90;3.60;;;15.80;99.90;;;;;;5051686;28;20483;-70
2023/08/30 00:23:05;;;;;;;3.83;3.07;;;15.80;99.90;;;;;;5052100;28;20435;-69
2023/08/30 00:25:40;;;;;;;9.07;3.50;;;15.80;99.90;;;;;;5052320;28;20464;-70
2023/08/30 00:28:08;;;;;;;4.40;3.40;;;15.80;99.90;;;;;;5052810;28;20455;-70
2023/08/30 00:30:35;;;;;;;4.70;3.57;;;15.80;99.90;;;;;;5051910;28;20460;-71
2023/08/30 00:33:04;;;;;;;5.53;3.40;;;15.80;99.90;;;;;;5052682;28;20409;-70
2023/08/30 00:35:33;;;;;;;3.90;3.43;;;15.80;99.90;;;;;;5051654;28;20425;-71
2023/08/30 00:38:01;;;;;;;4.60;3.67;;;15.80;99.90;;;;;;5052005;28;20467;-71
2023/08/30 00:40:39;;;;;;;5.03;4.57;;;15.80;99.90;;;;;;5051162;28;20515;-70
2023/08/30 00:43:08;;;;;;;4.23;3.50;;;15.80;99.90;;;;;;5050153;28;20467;-69
2023/08/30 00:45:40;;;;;;;6.13;3.53;;;15.80;99.90;;;;;;5051265;28;20447;-70
2023/08/30 00:48:09;;;;;;;4.10;3.27;;;15.70;99.90;;;;;;5050572;28;20468;-70
2023/08/30 00:50:36;;;;;;;3.90;3.10;;;15.70;99.90;;;;;;5032914;28;20468;-71
2023/08/30 00:53:05;;;;;;;2.60;2.40;;;15.70;99.90;;;;;;5050381;28;20483;-70
2023/08/30 00:55:33;;;;;;;3.30;3.00;;;15.70;99.90;;;;;;5032519;28;20475;-70
2023/08/30 00:58:02;;;;;;;4.83;3.20;;;15.70;99.90;;;;;;5050238;28;20476;-70
2023/08/30 01:00:31;;;;;;;3.00;2.57;;;15.70;99.90;;;;;;5050175;28;20510;-71
2023/08/30 01:03:03;;;;;;;3.93;3.10;;;15.70;99.90;;;;;;5050886;28;20429;-71
2023/08/30 01:05:30;;;;;;;3.40;2.87;;;15.70;99.90;;;;;;5051125;28;20912;-70
2023/08/30 01:08:06;;;;;;;3.70;2.90;;;15.70;99.90;;;;;;5051000;28;20794;-70
2023/08/30 01:10:45;;;;;;;4.87;3.67;;;15.70;99.90;;;;;;5051750;28;20478;-71
2023/08/30 01:13:17;;;;;;;5.00;3.60;;;15.60;99.90;;;;;;5051576;28;20437;-71
2023/08/30 01:15:49;;;;;;;7.80;3.20;;;15.60;99.90;;;;;;5053404;28;20448;-70
2023/08/30 01:18:20;;;;;;;3.10;2.80;;;15.60;99.90;;;;;;5054150;28;20444;-70
2023/08/30 01:20:54;;;;;;;3.40;2.80;;;15.60;99.90;;;;;;5054432;28;20486;-71
2023/08/30 01:23:37;;;;;;;4.83;3.20;;;15.60;99.90;;;;;;5052908;28;20507;-70
2023/08/30 01:26:11;;;;;;;3.90;3.13;;;15.60;99.90;;;;;;5053760;28;20994;-69
2023/08/30 01:28:41;;;;;;;3.00;2.70;;;15.60;99.90;;;;;;5033989;28;20464;-70
2023/08/30 01:31:09;;;;;;;3.70;3.17;;;15.60;99.90;;;;;;5033650;28;20464;-70
2023/08/30 01:33:41;;;;;;;4.63;3.37;;;15.60;99.90;;;;;;5035579;28;20520;-70
2023/08/30 01:36:11;;;;;;;5.90;3.10;;;15.60;99.90;;;;;;5035013;28;20437;-70
2023/08/30 01:38:40;;;;;;;3.23;2.93;;;15.60;99.90;;;;;;5035387;28;20425;-70
2023/08/30 01:41:07;;;;;;;3.33;2.70;;;15.60;99.90;;;;;;5035816;28;20520;-70
2023/08/30 01:43:37;;;;;;;4.40;3.00;;;15.60;99.90;;;;;;5035212;28;20431;-70
2023/08/30 01:46:11;;;;;;;3.27;2.77;;;15.70;99.90;;;;;;5035652;28;20425;-71
2023/08/30 01:48:40;;;;;;;4.67;2.70;;;15.60;99.90;;;;;;5036399;28;20425;-69
2023/08/30 01:51:17;;;;;;;5.17;3.37;;;15.60;99.90;;;;;;5035912;28;20472;-70
2023/08/30 01:53:48;;;;;;;5.47;4.00;;;15.50;99.90;;;;;;5036364;28;20457;-71
2023/08/30 01:56:17;;;;;;;3.90;3.50;;;15.50;99.90;;;;;;5051601;28;20429;-70
2023/08/30 01:58:45;;;;;;;2.93;2.63;;;15.50;99.90;;;;;;5035826;28;20450;-70
2023/08/30 02:01:13;;;;;;;3.87;3.47;;;15.50;99.90;;;;;;5035705;28;20535;-70
2023/08/30 02:03:45;;;;;;;6.70;3.40;;;15.50;99.90;;;;;;5035596;28;20509;-70
2023/08/30 02:06:18;;;;;;;5.40;3.20;;;15.50;99.90;;;;;;5035515;28;20469;-71
2023/08/30 02:08:51;;;;;;;3.47;3.17;;;15.50;99.90;;;;;;5034241;28;20441;-69
2023/08/30 02:11:24;;;;;;;8.73;3.07;;;15.60;99.90;;;;;;5033689;28;20469;-70
2023/08/30 02:13:54;;;;;;;3.40;2.50;;;15.50;99.90;;;;;;5034581;28;20433;-70
2023/08/30 02:16:24;;;;;;;5.50;3.30;;;15.40;99.90;;;;;;5036083;28;20440;-70
2023/08/30 02:18:55;;;;;;;3.40;3.10;;;15.40;99.90;;;;;;5051847;28;20491;-70
2023/08/30 02:21:22;;;;;;;3.93;3.03;;;15.40;99.90;;;;;;5053979;28;20484;-70
2023/08/30 02:23:53;;;;;;;3.70;2.90;;;15.40;99.90;;;;;;5054378;28;20431;-70
2023/08/30 02:26:21;;;;;;;4.73;2.83;;;15.40;99.90;;;;;;5054510;28;20428;-70
2023/08/30 02:28:49;;;;;;;3.87;2.97;;;15.40;99.90;;;;;;5055036;28;20455;-71
2023/08/30 02:31:24;;;;;;;4.13;2.70;;;15.30;99.90;;;;;;5054953;28;20464;-70
2023/08/30 02:33:51;;;;;;;3.97;3.27;;;15.40;99.90;;;;;;5054768;28;20451;-70
2023/08/30 02:36:31;;;;;;;4.00;2.60;;;15.30;99.90;;;;;;5054858;28;20435;-70
2023/08/30 02:39:01;;;;;;;2.77;2.47;;;15.30;99.90;;;;;;5054747;28;20427;-69
2023/08/30 02:41:28;;;;;;;3.40;2.90;;;15.30;99.90;;;;;;5054624;28;20460;-70
2023/08/30 02:43:55;;;;;;;2.87;2.50;;;15.30;99.90;;;;;;5054855;28;20447;-69
2023/08/30 02:46:24;;;;;;;4.37;3.30;;;15.30;99.90;;;;;;5055263;28;20417;-70
2023/08/30 02:49:01;;;;;;;3.77;2.57;;;15.30;99.90;;;;;;5055397;28;20583;-71
2023/08/30 02:51:27;;;;;;;2.77;2.50;;;15.30;99.90;;;;;;5054915;28;20497;-70
2023/08/30 02:53:54;;;;;;;4.13;3.03;;;15.30;99.90;;;;;;5054049;28;20479;-70
2023/08/30 02:56:23;;;;;;;6.83;2.57;;;15.30;99.90;;;;;;5055134;28;20432;-70
2023/08/30 02:58:50;;;;;;;6.13;2.40;;;15.30;99.90;;;;;;5055493;28;20506;-70
2023/08/30 03:01:20;;;;;;;3.30;2.87;;;15.30;99.90;;;;;;5055045;28;20502;-71
2023/08/30 03:03:49;;;;;;;3.50;2.80;;;15.30;99.90;;;;;;5055044;28;20916;-71
2023/08/30 03:06:18;;;;;;;3.30;2.57;;;15.30;99.90;;;;;;5055420;28;20436;-71
2023/08/30 03:08:45;;;;;;;3.60;2.93;;;15.20;99.90;;;;;;5037684;28;20454;-71
2023/08/30 03:11:15;;;;;;;3.43;2.83;;;15.20;99.90;;;;;;5036097;28;20445;-71
2023/08/30 03:13:50;;;;;;;8.90;6.13;;;15.20;99.90;;;;;;5035427;28;20432;-71
2023/08/30 03:16:26;;;;;;;4.47;3.93;;;15.10;99.90;;;;;;5034764;28;20436;-71
2023/08/30 03:19:01;;;;;;;6.00;3.73;;;15.00;99.90;;;;;;5035264;28;20457;-71
2023/08/30 03:21:28;;;;;;;4.13;3.00;;;15.00;99.90;;;;;;5043640;28;20471;-71
2023/08/30 03:24:18;;;;;;;6.27;4.60;;;15.00;99.90;;;;;;5055774;28;20436;-71
2023/08/30 03:26:46;;;;;;;5.23;3.17;;;14.90;99.90;;;;;;5055803;28;20434;-70
2023/08/30 03:29:16;;;;;;;5.47;3.90;;;14.90;99.90;;;;;;5056069;28;20440;-70
2023/08/30 03:31:44;;;;;;;4.40;4.00;;;14.80;99.90;;;;;;5055380;28;20467;-70
2023/08/30 03:34:12;;;;;;;10.47;4.00;;;14.80;99.90;;;;;;5055645;28;20417;-71
2023/08/30 03:36:50;;;;;;;6.40;3.77;;;14.90;99.90;;;;;;5054564;28;20438;-71
2023/08/30 03:39:22;;;;;;;4.83;3.87;;;14.90;99.90;;;;;;5054558;28;20464;-70
2023/08/30 03:41:58;;;;;;;4.80;4.10;;;14.90;99.90;;;;;;5055108;28;20464;-70
2023/08/30 03:44:26;;;;;;;6.40;4.10;;;14.90;99.90;;;;;;5055496;28;20471;-70
2023/08/30 03:46:56;;;;;;;3.50;3.20;;;14.90;99.90;;;;;;5055054;28;20455;-70
2023/08/30 03:49:29;;;;;;;5.80;3.80;;;14.90;99.90;;;;;;5055078;28;20480;-70
2023/08/30 03:51:58;;;;;;;8.60;3.90;;;14.90;99.90;;;;;;5054810;28;20412;-70
2023/08/30 03:54:26;;;;;;;3.70;3.40;;;14.90;99.90;;;;;;5055488;28;20416;-70
2023/08/30 03:56:56;;;;;;;4.50;3.80;;;14.90;99.90;;;;;;5037995;28;20421;-70
2023/08/30 03:59:25;;;;;;;4.57;4.10;;;14.90;99.90;;;;;;5055081;28;20490;-69
2023/08/30 04:01:53;;;;;;;4.00;3.40;;;14.90;99.90;;;;;;5055105;28;20464;-70
2023/08/30 04:04:20;;;;;;;5.80;4.00;;;14.90;99.90;;;;;;5055558;28;20420;-70
2023/08/30 04:06:49;;;;;;;5.40;4.83;;;14.90;99.90;;;;;;5055445;28;20963;-70
2023/08/30 04:09:17;;;;;;;4.60;4.17;;;14.90;99.90;;;;;;5038603;28;20432;-70
2023/08/30 04:11:44;;;;;;;5.83;3.80;;;14.90;99.90;;;;;;5055565;28;20428;-70
2023/08/30 04:14:15;;;;;;;5.23;4.40;;;14.90;99.90;;;;;;5055204;28;20421;-71
2023/08/30 04:16:45;;;;;;;5.10;4.53;;;14.90;99.90;;;;;;5054843;28;20428;-70
2023/08/30 04:19:12;;;;;;;10.00;5.20;;;14.90;99.90;;;;;;5054882;28;20443;-71
2023/08/30 04:21:41;;;;;;;6.00;4.23;;;14.90;99.90;;;;;;5055073;28;20468;-70
2023/08/30 04:24:12;;;;;;;5.23;3.70;;;14.90;99.90;;;;;;5054868;28;20431;-71
2023/08/30 04:26:41;;;;;;;6.67;5.20;;;14.90;99.90;;;;;;5055209;28;20424;-70
2023/08/30 04:29:10;;;;;;;6.33;5.10;;;14.90;99.90;;;;;;5055041;28;20447;-69
2023/08/30 04:31:39;;;;;;;8.63;6.20;;;14.90;99.90;;;;;;5055197;28;20431;-71
2023/08/30 04:34:07;;;;;;;6.10;4.30;;;14.90;99.90;;;;;;5055248;28;20451;-71
2023/08/30 04:36:35;;;;;;;6.03;4.60;;;14.90;99.90;;;;;;5055106;28;20428;-70
2023/08/30 04:39:10;;;;;;;5.57;4.30;;;14.90;99.90;;;;;;5038176;28;20463;-71
2023/08/30 04:41:37;;;;;;;5.53;4.20;;;14.90;99.90;;;;;;5054496;28;20523;-70
2023/08/30 04:44:27;;;;;;;5.70;4.43;;;14.90;99.90;;;;;;5054639;28;20487;-70
2023/08/30 04:46:54;;;;;;;4.23;3.73;;;15.00;99.90;;;;;;5037238;28;20436;-70
2023/08/30 04:49:29;;;;;;;7.20;4.30;;;15.00;99.90;;;;;;5056138;28;20487;-70
2023/08/30 04:51:58;;;;;;;5.70;4.87;;;15.00;99.90;;;;;;5058315;28;20486;-70
2023/08/30 04:54:26;;;;;;;5.53;4.10;;;15.10;99.90;;;;;;5058490;28;20404;-70
2023/08/30 04:56:56;;;;;;;4.70;4.30;;;15.10;99.90;;;;;;5058974;28;20443;-70
2023/08/30 04:59:24;;;;;;;6.80;5.40;;;15.10;99.90;;;;;;5058861;28;20471;-70
2023/08/30 05:01:52;;;;;;;4.53;4.13;;;15.10;99.90;;;;;;5058506;28;20495;-71
2023/08/30 05:04:19;;;;;;;4.30;3.90;;;15.20;99.90;;;;;;5058043;28;20448;-71
2023/08/30 05:06:46;;;;;;;5.30;4.73;;;15.20;99.90;;;;;;5058450;28;20413;-70
2023/08/30 05:09:16;;;;;;;6.53;4.33;;;15.20;99.90;;;;;;5058260;28;20421;-71
2023/08/30 05:11:44;;;;;;;9.70;4.97;;;15.20;99.90;;;;;;5058596;28;20449;-70
2023/08/30 05:14:12;;;;;;;4.40;3.93;;;15.30;99.90;;;;;;5058571;28;20439;-70
2023/08/30 05:16:40;;;;;;;5.40;4.23;;;15.30;99.90;;;;;;5058053;28;20484;-70
2023/08/30 05:19:13;;;;;;;4.50;3.97;;;15.40;99.90;;;;;;5057535;28;20512;-70
2023/08/30 05:21:57;;;;;;;5.40;4.53;;;15.50;99.90;;;;;;5057515;28;20480;-70
2023/08/30 05:24:26;;;;;;;4.63;4.10;;;15.60;99.90;;;;;;5058038;28;20424;-70
2023/08/30 05:26:54;;;;;;;3.70;2.90;;;15.70;99.90;;;;;;5057762;28;20480;-70
2023/08/30 05:29:23;;;;;;;5.70;4.10;;;15.80;99.90;;;;;;5057647;28;20482;-69
2023/08/30 05:31:50;;;;;;;5.10;4.37;;;15.80;99.90;;;;;;5056072;28;20894;-72
2023/08/30 05:34:23;;;;;;;7.40;5.33;;;15.90;99.90;;;;;;5057684;28;20463;-71
2023/08/30 05:36:50;;;;;;;7.60;4.20;;;15.90;99.90;;;;;;5057919;28;20428;-72
2023/08/30 05:39:24;;;;;;;8.63;4.10;;;15.80;99.90;;;;;;5056684;28;20446;-73
2023/08/30 05:41:51;;;;;;;7.60;4.07;;;15.80;99.90;;;;;;5057001;28;20471;-72
2023/08/30 05:44:20;;;;;;;5.60;4.83;;;15.90;99.90;;;;;;5056009;28;20443;-72
2023/08/30 05:46:47;;;;;;;5.90;4.10;;;15.90;99.90;;;;;;5047316;28;20483;-71
2023/08/30 05:49:16;;;;;;;5.63;4.57;;;16.00;99.90;;;;;;5040408;28;20507;-71
2023/08/30 05:51:43;;;;;;;4.37;3.97;;;16.10;99.90;;;;;;5050020;28;20451;-70
2023/08/30 05:54:11;;;;;;;4.30;3.47;;;16.10;99.90;;;;;;5049788;28;20429;-71
2023/08/30 05:56:38;;;;;;;6.30;3.90;;;16.20;99.90;;;;;;5035857;28;20485;-71
2023/08/30 05:59:05;;;;;;;5.43;4.17;;;16.20;99.90;;;;;;5044364;28;20471;-70
2023/08/30 06:01:35;;;;;;;5.00;4.17;;;16.20;99.90;;;;;;5048277;28;20479;-71
2023/08/30 06:04:04;;;;;;;5.97;4.70;;;16.20;99.90;;;;;;5048861;28;20444;-70
2023/08/30 06:06:37;;;;;;;5.37;4.63;;;16.30;99.90;;;;;;5048976;28;20467;-71
2023/08/30 06:09:04;;;;;;;4.83;4.30;;;16.40;99.90;;;;;;5047833;28;20425;-71
2023/08/30 06:11:33;;;;;;;6.03;5.03;;;16.40;99.90;;;;;;5040285;28;20521;-71
2023/08/30 06:14:01;;;;;;;9.07;5.27;;;16.40;99.90;;;;;;5027436;28;20465;-71
2023/08/30 06:16:28;;;;;;;8.37;5.43;;;16.40;99.90;;;;;;5043985;28;20804;-71
2023/08/30 06:18:58;;;;;;;5.40;4.90;;;16.40;99.90;;;;;;5047763;28;20460;-71
2023/08/30 06:21:26;;;;;;;5.80;5.20;;;16.40;99.90;;;;;;5047364;28;20490;-71
2023/08/30 06:23:54;;;;;;;5.57;4.90;;;16.50;99.90;;;;;;5046438;28;20444;-71
2023/08/30 06:26:21;;;;;;;7.10;5.07;;;16.50;99.90;;;;;;5046105;28;20432;-72
2023/08/30 06:28:48;;;;;;;6.00;4.93;;;16.60;99.90;;;;;;5046509;28;20488;-71
2023/08/30 06:31:15;;;;;;;9.13;5.23;;;16.60;99.90;;;;;;5029200;28;20457;-72
2023/08/30 06:33:43;;;;;;;4.90;4.27;;;16.60;99.90;;;;;;5046056;28;20452;-72
2023/08/30 06:36:17;;;;;;;6.13;4.57;;;16.60;99.90;;;;;;5046446;28;20472;-71
2023/08/30 06:38:44;;;;;;;4.67;4.23;;;16.70;99.90;;;;;;5046228;28;20460;-72
2023/08/30 06:41:12;;;;;;;8.53;4.90;;;16.80;99.90;;;;;;5045553;28;20515;-71
2023/08/30 06:43:39;;;;;;;4.90;4.33;;;16.80;99.90;;;;;;5044945;28;20488;-72
2023/08/30 06:46:12;;;;;;;5.23;4.73;;;17.00;99.90;;;;;;5026635;28;20452;-71
2023/08/30 06:48:40;;;;;;;5.10;4.53;;;17.00;99.90;;;;;;5044358;28;20432;-71
2023/08/30 06:51:07;;;;;;;6.47;4.50;;;17.10;99.90;;;;;;5026866;28;20498;-71
2023/08/30 06:53:36;;;;;;;8.53;3.57;;;17.20;99.90;;;;;;5043405;28;20469;-71
2023/08/30 06:56:03;;;;;;;4.53;4.00;;;17.20;99.90;;;;;;5044470;28;20483;-71
2023/08/30 06:58:33;;;;;;;3.77;3.47;;;17.30;99.90;;;;;;5043927;28;20482;-71
2023/08/30 07:01:03;;;;;;;4.73;4.23;;;17.30;99.90;;;;;;5043020;28;20491;-70
2023/08/30 07:03:31;;;;;;;4.70;3.80;;;17.30;99.90;;;;;;5042746;28;20436;-71
2023/08/30 07:05:58;;;;;;;4.23;3.83;;;17.40;99.90;;;;;;5025486;28;21134;-71
2023/08/30 07:08:26;;;;;;;3.50;3.20;;;17.50;99.90;;;;;;5043397;28;20452;-71
2023/08/30 07:10:54;;;;;;;7.83;3.87;;;17.60;99.90;;;;;;5042298;28;20495;-71
2023/08/30 07:13:23;;;;;;;5.33;4.43;;;17.70;99.90;;;;;;5042062;28;20479;-71
2023/08/30 07:15:53;;;;;;;4.53;3.50;;;17.70;99.90;;;;;;5025918;28;20459;-71
2023/08/30 07:18:21;;;;;;;4.13;2.93;;;17.90;99.90;;;;;;5042019;28;20491;-71
2023/08/30 07:20:49;;;;;;;5.30;3.03;;;17.90;99.90;;;;;;5004698;28;20475;-71
2023/08/30 07:23:16;;;;;;;3.57;3.27;;;18.00;99.90;;;;;;5021667;28;20436;-71
2023/08/30 07:25:45;;;;;;;4.23;3.50;;;18.00;99.90;;;;;;5004178;28;20469;-70
2023/08/30 07:28:13;;;;;;;6.83;3.47;;;18.00;99.90;;;;;;5024977;28;20456;-71
2023/08/30 07:30:41;;;;;;;6.47;3.80;;;18.00;99.90;;;;;;5020082;28;21042;-71
2023/08/30 07:33:11;;;;;;;5.50;4.70;;;18.10;99.90;;;;;;5039067;28;20424;-73
2023/08/30 07:35:41;;;;;;;3.30;2.97;;;18.10;99.90;;;;;;5016471;28;20460;-70
2023/08/30 07:38:09;;;;;;;6.80;3.77;;;18.10;99.90;;;;;;5037595;28;20451;-71
2023/08/30 07:40:37;;;;;;;7.83;3.43;;;18.10;99.90;;;;;;5039333;28;21199;-71
2023/08/30 07:43:05;;;;;;;4.80;3.00;;;18.20;99.90;;;;;;5039478;28;20465;-72
2023/08/30 07:45:34;;;;;;;6.47;2.90;;;18.30;99.90;;;;;;5037779;28;20464;-72
2023/08/30 07:48:02;;;;;;;4.70;3.13;;;18.30;99.90;;;;;;5023287;28;20513;-70
2023/08/30 07:50:29;;;;;;;6.20;3.67;;;18.40;99.90;;;;;;5001186;28;20473;-71
2023/08/30 07:52:56;;;;;;;12.67;5.53;;;18.40;99.90;;;;;;5019186;28;20837;-71
2023/08/30 07:55:25;;;;;;;14.07;3.90;;;18.40;99.90;;;;;;5033602;28;20499;-72
2023/08/30 07:57:52;;;;;;;4.13;2.87;;;18.40;99.90;;;;;;5021180;28;20479;-71
2023/08/30 08:00:20;;;;;;;4.03;3.50;;;18.40;99.90;;;;;;5018887;28;20475;-71
2023/08/30 08:02:49;;;;;;;7.10;3.40;;;18.40;99.90;;;;;;5031489;28;20460;-71
2023/08/30 08:05:18;;;;;;;4.40;3.80;;;18.50;99.90;;;;;;5039850;28;20432;-70
2023/08/30 08:07:46;;;;;;;3.93;3.17;;;18.50;99.90;;;;;;5036885;28;20452;-70
2023/08/30 08:10:15;;;;;;;3.13;2.70;;;18.50;99.90;;;;;;5034747;28;20494;-70
2023/08/30 08:12:43;;;;;;;7.10;4.43;;;18.50;99.90;;;;;;5037467;28;20503;-70
2023/08/30 08:15:10;;;;;;;5.03;3.57;;;18.60;99.90;;;;;;5036791;28;20523;-70
2023/08/30 08:17:37;;;;;;;5.53;2.90;;;18.70;99.90;;;;;;5037174;28;20451;-70
2023/08/30 08:20:07;;;;;;;3.53;3.10;;;18.60;99.90;;;;;;5037893;28;20509;-70
2023/08/30 08:22:36;;;;;;;5.77;2.97;;;18.60;99.90;;;;;;5036827;28;20472;-71
2023/08/30 08:25:04;;;;;;;3.30;2.63;;;18.70;99.90;;;;;;5038963;28;20891;-71
2023/08/30 08:27:31;;;;;;;4.80;3.30;;;18.70;99.90;;;;;;5040862;28;20447;-72
2023/08/30 08:30:00;;;;;;;3.03;2.73;;;18.70;99.90;;;;;;5041831;28;20496;-70
2023/08/30 08:32:27;;;;;;;3.83;2.73;;;18.70;99.90;;;;;;5042899;28;20463;-70
2023/08/30 08:34:56;;;;;;;3.80;3.00;;;18.70;99.90;;;;;;5042405;28;20955;-71
2023/08/30 08:37:25;;;;;;;3.03;2.57;;;18.70;99.90;;;;;;5039211;28;20503;-71
2023/08/30 08:39:52;;;;;;;3.13;2.60;;;18.80;99.90;;;;;;5040181;28;20479;-71
2023/08/30 08:42:20;;;;;;;3.20;2.67;;;19.00;99.90;;;;;;5041661;28;20483;-71
2023/08/30 08:44:49;;;;;;;4.77;2.70;;;19.10;99.90;;;;;;5039076;28;20459;-72
2023/08/30 08:47:18;;;;;;;2.97;2.60;;;19.30;99.90;;;;;;5038081;28;20448;-71
2023/08/30 08:49:45;;;;;;;2.43;2.23;;;19.50;99.90;;;;;;5042242;28;20460;-70
2023/08/30 08:52:16;;;;;;;2.93;2.30;;;19.70;99.90;;;;;;5036740;28;20505;-71
2023/08/30 08:54:48;;;;;;;2.40;2.07;;;19.90;99.90;;;;;;5034419;28;20424;-70
2023/08/30 08:57:16;;;;;;;2.90;1.90;;;20.00;99.90;;;;;;5016485;28;20502;-71
2023/08/30 08:59:50;;;;;;;2.30;1.77;;;20.10;99.90;;;;;;5037311;28;20482;-70
2023/08/30 09:02:18;;;;;;;2.50;2.30;;;20.20;99.90;;;;;;5019218;28;20488;-70
2023/08/30 09:04:47;;;;;;;2.83;2.33;;;20.20;99.90;;;;;;5036209;28;20502;-70
2023/08/30 09:07:17;;;;;;;2.27;2.07;;;20.30;99.90;;;;;;5036468;28;20444;-71
2023/08/30 09:09:45;;;;;;;5.10;2.57;;;20.40;99.90;;;;;;5036597;28;20471;-70
2023/08/30 09:12:17;;;;;;;3.40;2.07;;;20.50;99.90;;;;;;5036588;28;20510;-70
2023/08/30 09:14:59;;;;;;;3.43;2.73;;;20.60;99.90;;;;;;5035918;28;20480;-70
2023/08/30 09:17:36;;;;;;;3.10;2.23;;;20.90;99.90;;;;;;5035859;28;20821;-72
2023/08/30 09:20:09;;;;;;;4.43;2.63;;;21.50;99.90;;;;;;5035166;28;20975;-71
2023/08/30 09:22:41;;;;;;;2.70;2.23;;;22.10;99.90;;;;;;5016806;28;20480;-72
2023/08/30 09:25:12;;;;;;;4.23;2.43;;;23.00;99.90;;;;;;5034981;28;20479;-71
2023/08/30 09:27:43;;;;;;;3.00;2.10;;;23.80;99.90;;;;;;5034995;28;20860;-71
2023/08/30 09:30:12;;;;;;;2.50;1.80;;;24.40;99.90;;;;;;5034886;28;20474;-72
2023/08/30 09:32:47;;;;;;;2.60;1.93;;;24.90;99.90;;;;;;5016814;28;20471;-71
2023/08/30 09:35:14;;;;;;;2.43;1.87;;;25.30;99.90;;;;;;5033244;28;20456;-71
2023/08/30 09:37:52;;;;;;;8.30;5.97;;;25.60;99.90;;;;;;5016814;28;21016;-70
2023/08/30 09:40:22;;;;;;;5.80;3.37;;;25.70;99.90;;;;;;5016489;28;20895;-71
2023/08/30 09:42:50;;;;;;;4.90;2.80;;;26.00;99.90;;;;;;5033218;28;21056;-71
2023/08/30 09:45:22;;;;;;;3.03;1.90;;;26.10;99.90;;;;;;5014371;28;20964;-72
2023/08/30 09:47:52;;;;;;;2.80;2.10;;;26.40;99.90;;;;;;5014892;28;20480;-71
2023/08/30 09:50:22;;;;;;;2.60;2.27;;;26.80;99.90;;;;;;5014290;28;20480;-71
2023/08/30 09:52:50;;;;;;;1.93;1.80;;;27.10;99.90;;;;;;5014146;28;20441;-71
2023/08/30 09:55:22;;;;;;;5.30;1.87;;;27.70;98.80;;;;;;5014708;28;20456;-71
2023/08/30 09:57:50;;;;;;;2.30;2.10;;;27.50;96.70;;;;;;5014417;28;20504;-71
2023/08/30 10:00:18;;;;;;;2.43;1.50;;;27.60;97.70;;;;;;5014900;28;20860;-72
2023/08/30 10:02:45;;;;;;;2.20;2.00;;;27.70;95.90;;;;;;4996668;28;20817;-72
2023/08/30 10:05:13;;;;;;;3.00;1.90;;;27.50;94.70;;;;;;5023010;28;20479;-71
2023/08/30 10:07:41;;;;;;;2.80;1.50;;;27.50;94.40;;;;;;5033987;28;20421;-71
2023/08/30 10:10:12;;;;;;;3.17;1.90;;;27.50;93.50;;;;;;5033779;28;20475;-72
2023/08/30 10:12:45;;;;;;;9.07;1.73;;;27.30;95.30;;;;;;5016101;28;20868;-71
2023/08/30 10:15:14;;;;;;;2.60;1.83;;;27.40;93.40;;;;;;5033908;28;20486;-72
2023/08/30 10:17:46;;;;;;;2.70;1.70;;;27.00;93.40;;;;;;5033808;28;20456;-71
2023/08/30 10:20:14;;;;;;;3.97;2.10;;;26.80;93.70;;;;;;5033794;28;20543;-70
2023/08/30 10:22:44;;;;;;;2.53;2.30;;;26.60;93.00;;;;;;5033218;28;20483;-71
2023/08/30 10:25:16;;;;;;;3.50;1.90;;;26.70;94.30;;;;;;5004019;28;20441;-72
2023/08/30 10:27:48;;;;;;;5.43;3.30;;;27.10;94.10;;;;;;5020621;28;20434;-72
2023/08/30 10:30:19;;;;;;;8.33;5.00;;;27.30;93.60;;;;;;5022321;28;20459;-71
2023/08/30 10:32:46;;;;;;;2.93;2.63;;;27.10;92.10;;;;;;5024627;28;20436;-71
2023/08/30 10:35:15;;;;;;;7.60;4.57;;;26.70;92.70;;;;;;5026998;28;20432;-72
2023/08/30 10:37:42;;;;;;;2.70;2.10;;;26.20;93.50;;;;;;5022628;28;20520;-72
2023/08/30 10:40:14;;;;;;;2.23;1.80;;;25.80;95.80;;;;;;5022473;28;20988;-71
2023/08/30 10:42:44;;;;;;;2.37;2.00;;;25.70;95.10;;;;;;5023981;28;20468;-71
2023/08/30 10:45:14;;;;;;;2.97;1.70;;;25.40;96.10;;;;;;5024000;28;20437;-71
2023/08/30 10:47:42;;;;;;;3.10;1.90;;;25.10;95.60;;;;;;5023418;28;20527;-70
2023/08/30 10:50:12;;;;;;;2.47;1.60;;;25.00;96.30;;;;;;5030283;28;20457;-71
2023/08/30 10:52:39;;;;;;;2.90;1.80;;;25.00;96.40;;;;;;5029928;28;20459;-71
2023/08/30 10:55:07;;;;;;;2.00;1.43;;;25.10;96.00;;;;;;5023941;28;20438;-71
2023/08/30 10:57:45;;;;;;;2.80;1.90;;;25.00;96.70;;;;;;4999753;28;20958;-71
2023/08/30 11:00:23;;;;;;;2.40;1.83;;;24.90;97.30;;;;;;5017284;28;20563;-72
2023/08/30 11:02:50;;;;;;;2.20;1.77;;;24.90;99.20;;;;;;5034138;28;20542;-71
2023/08/30 11:05:22;;;;;;;4.40;2.00;;;24.90;99.10;;;;;;5032496;28;20487;-71
2023/08/30 11:07:52;;;;;;;2.63;1.90;;;24.80;99.90;;;;;;5033887;28;20464;-71
2023/08/30 11:10:20;;;;;;;2.17;1.70;;;24.90;99.90;;;;;;5034185;28;20522;-72
2023/08/30 11:12:49;;;;;;;2.27;1.83;;;24.80;99.90;;;;;;5029907;28;20460;-71
2023/08/30 11:15:18;;;;;;;1.70;1.50;;;24.50;98.60;;;;;;5033511;28;20908;-70
2023/08/30 11:17:46;;;;;;;3.37;2.50;;;24.10;99.20;;;;;;5033692;28;20463;-69
2023/08/30 11:20:19;;;;;;;2.90;1.63;;;23.80;99.90;;;;;;5034386;28;20546;-70
2023/08/30 11:22:50;;;;;;;1.87;1.70;;;23.80;99.90;;;;;;5033331;28;21122;-71
2023/08/30 11:25:17;;;;;;;1.90;1.50;;;23.90;99.60;;;;;;5031065;28;20448;-71
2023/08/30 11:27:45;;;;;;;2.10;1.40;;;23.90;98.30;;;;;;5032597;28;20444;-70
2023/08/30 11:30:13;;;;;;;2.33;1.80;;;23.80;98.10;;;;;;5033952;28;20834;-71
2023/08/30 11:32:47;;;;;;;1.70;1.60;;;23.90;98.70;;;;;;5033203;28;20417;-71
2023/08/30 11:35:14;;;;;;;1.90;1.80;;;23.80;98.80;;;;;;5032604;28;20444;-71
2023/08/30 11:37:42;;;;;;;16.57;9.30;;;23.90;99.40;;;;;;5034089;28;20861;-71
2023/08/30 11:40:12;;;;;;;2.20;1.70;;;23.80;98.70;;;;;;5034702;28;20522;-70
2023/08/30 11:42:39;;;;;;;2.27;2.07;;;23.80;98.50;;;;;;5034340;28;20471;-70
2023/08/30 11:45:08;;;;;;;2.17;1.73;;;23.80;98.40;;;;;;5035984;28;20433;-70
2023/08/30 11:47:38;;;;;;;2.63;1.60;;;23.80;96.60;;;;;;5035577;28;20449;-72
2023/08/30 11:50:09;;;;;;;3.20;1.77;;;23.70;96.00;;;;;;5034597;28;20469;-70
2023/08/30 11:52:37;;;;;;;1.70;1.37;;;23.40;97.10;;;;;;5034343;28;20440;-71
2023/08/30 11:55:05;;;;;;;2.97;2.03;;;23.20;97.50;;;;;;5034455;28;21006;-71
2023/08/30 11:57:35;;;;;;;4.63;2.97;;;23.00;97.30;;;;;;5034480;28;20995;-71
2023/08/30 12:00:10;;;;;;;1.90;1.70;;;22.80;98.80;;;;;;5016664;28;20527;-70
2023/08/30 12:02:37;;;;;;;2.03;1.53;;;22.90;99.20;;;;;;5034483;28;20801;-71
2023/08/30 12:05:07;;;;;;;2.27;2.07;;;22.50;99.60;;;;;;5034010;28;20451;-70
2023/08/30 12:07:39;;;;;;;5.13;1.67;;;22.40;99.00;;;;;;5034411;28;20797;-69
2023/08/30 12:10:07;;;;;;;2.17;1.40;;;22.30;99.30;;;;;;5033211;28;20467;-70
2023/08/30 12:12:46;;;;;;;4.03;1.57;;;22.30;99.00;;;;;;5016659;28;20913;-70
2023/08/30 12:15:14;;;;;;;2.30;1.80;;;22.20;99.90;;;;;;5033230;28;20452;-70
2023/08/30 12:17:41;;;;;;;1.67;1.57;;;22.20;99.90;;;;;;5033788;28;20827;-71
2023/08/30 12:20:20;;;;;;;2.50;2.30;;;22.20;99.90;;;;;;5034027;28;20472;-70
2023/08/30 12:22:50;;;;;;;3.30;1.90;;;22.20;99.90;;;;;;5033640;28;20879;-70
2023/08/30 12:25:19;;;;;;;2.50;1.80;;;22.20;99.90;;;;;;5033153;28;20439;-70
2023/08/30 12:27:46;;;;;;;4.70;3.07;;;22.20;99.90;;;;;;5033424;28;20421;-70
2023/08/30 12:30:16;;;;;;;2.73;2.17;;;22.20;99.20;;;;;;5032649;28;20510;-70
2023/08/30 12:32:43;;;;;;;2.37;1.90;;;22.20;99.90;;;;;;5033953;28;20428;-71
2023/08/30 12:35:12;;;;;;;2.40;1.80;;;22.20;99.90;;;;;;5032563;28;20444;-69
2023/08/30 12:37:45;;;;;;;1.73;1.60;;;22.30;99.90;;;;;;5033040;28;20440;-70
2023/08/30 12:40:13;;;;;;;3.93;2.03;;;22.20;99.90;;;;;;5033087;28;20472;-70
2023/08/30 12:42:42;;;;;;;5.10;3.37;;;22.10;99.90;;;;;;5033529;28;20536;-71
2023/08/30 12:45:10;;;;;;;4.80;3.70;;;22.00;99.90;;;;;;5032590;28;20508;-71
2023/08/30 12:47:37;;;;;;;4.07;2.60;;;21.90;99.90;;;;;;5033100;28;20452;-71
2023/08/30 12:50:05;;;;;;;7.77;5.80;;;21.90;99.90;;;;;;5033445;28;20467;-70
2023/08/30 12:52:34;;;;;;;6.83;3.23;;;21.80;99.90;;;;;;5031977;28;20460;-70
2023/08/30 12:55:03;;;;;;;2.13;1.90;;;21.80;99.90;;;;;;5033167;28;20437;-70
2023/08/30 12:57:32;;;;;;;2.27;1.90;;;21.80;99.90;;;;;;5032708;28;20428;-70